createdAt,value
2019-05-30T00:01:54.437Z,7.8
2019-05-30T00:04:30.286Z,7.7
2019-05-30T00:09:34.259Z,7.4
2019-05-30T00:12:06.623Z,7
2019-05-30T00:14:39.098Z,7.9
2019-05-30T00:17:11.881Z,7.8
2019-05-30T00:19:44.498Z,7.7
2019-05-30T00:22:16.885Z,8
2019-05-30T00:27:20.616Z,7.5
2019-05-30T00:29:52.810Z,7.1
2019-05-30T00:32:25.312Z,6.7
2019-05-30T00:34:58.050Z,7.4
2019-05-30T00:37:31.838Z,6.8
2019-05-30T00:40:04.386Z,7.1
2019-05-30T00:42:37.991Z,7.5
2019-05-30T00:45:21.461Z,6.5
2019-05-30T00:47:51.394Z,6.5
2019-05-30T00:50:23.781Z,6.9
2019-05-30T00:52:56.656Z,6.7
2019-05-30T00:55:28.884Z,6.3
2019-05-30T00:58:01.233Z,7.1
2019-05-30T01:00:44.418Z,6.5
2019-05-30T01:03:16.241Z,6.9
2019-05-30T01:05:48.587Z,6.4
2019-05-30T01:08:20.937Z,6.3
2019-05-30T01:10:53.224Z,6.2
2019-05-30T01:13:25.831Z,6.4
2019-05-30T01:15:59.161Z,6.3
2019-05-30T01:18:33.066Z,6.2
2019-05-30T01:21:05.626Z,5.9
2019-05-30T01:23:39.359Z,6.2
2019-05-30T01:26:11.604Z,6.3
2019-05-30T01:28:44.033Z,6.9
2019-05-30T01:31:25.439Z,6
2019-05-30T01:33:59.704Z,6.3
2019-05-30T01:36:34.918Z,6.3
2019-05-30T01:39:08.755Z,6.3
2019-05-30T01:41:42.618Z,6.9
2019-05-30T01:44:16.489Z,6.6
2019-05-30T01:46:50.216Z,6.6
2019-05-30T01:49:24.286Z,7.2
2019-05-30T01:51:58.670Z,7.3
2019-05-30T01:54:33.860Z,7.1
2019-05-30T01:57:08.606Z,7.7
2019-05-30T01:59:42.873Z,7.2
2019-05-30T02:02:16.679Z,6.5
2019-05-30T02:04:50.476Z,6.6
2019-05-30T02:07:24.249Z,6.6
2019-05-30T02:09:59.352Z,7.5
2019-05-30T02:12:34.434Z,7
2019-05-30T02:15:09.531Z,7.3
2019-05-30T02:17:44.147Z,7.4
2019-05-30T02:20:18.430Z,7.8
2019-05-30T02:22:52.200Z,7.2
2019-05-30T02:25:26.060Z,8.1
2019-05-30T02:28:00.253Z,8.2
2019-05-30T02:30:35.374Z,7.5
2019-05-30T02:33:12.931Z,8.5
2019-05-30T02:35:47.281Z,8
2019-05-30T02:38:21.127Z,8.3
2019-05-30T02:40:55.179Z,8.2
2019-05-30T02:43:28.961Z,8.1
2019-05-30T02:46:05.829Z,9
2019-05-30T02:48:59.656Z,9.1
2019-05-30T02:51:28.326Z,9.8
2019-05-30T02:54:07.068Z,9.1
2019-05-30T02:56:44.732Z,10.1
2019-05-30T02:59:18.604Z,10
2019-05-30T03:02:04.946Z,11.2
2019-05-30T03:04:35.307Z,10.3
2019-05-30T03:07:11.251Z,10.7
2019-05-30T03:09:45.307Z,11
2019-05-30T03:12:17.936Z,10
2019-05-30T03:14:50.387Z,11.6
2019-05-30T03:17:22.988Z,11.5
2019-05-30T03:19:55.506Z,12.3
2019-05-30T03:22:28.412Z,11.5
2019-05-30T03:25:04.598Z,10.5
2019-05-30T03:27:42.765Z,11.1
2019-05-30T03:31:30.080Z,11.7
2019-05-30T03:34:17.850Z,11.3
2019-05-30T03:36:47.126Z,12
2019-05-30T03:39:21.247Z,11
2019-05-30T03:41:55.105Z,11
2019-05-30T03:44:29.076Z,10.8
2019-05-30T03:47:06.144Z,10.4
2019-05-30T03:49:45.577Z,10.8
2019-05-30T03:52:19.495Z,12.6
2019-05-30T03:54:53.527Z,11.4
2019-05-30T03:57:27.478Z,10.8
2019-05-30T04:00:01.645Z,9.9
2019-05-30T04:02:58.626Z,11
2019-05-30T04:05:19.634Z,9.7
2019-05-30T04:07:53.573Z,9.7
2019-05-30T04:10:27.910Z,9.4
2019-05-30T04:13:01.940Z,8.9
2019-05-30T04:15:36.319Z,9.3
2019-05-30T04:18:14.221Z,9.4
2019-05-30T04:20:49.213Z,8.8
2019-05-30T04:23:21.701Z,8.7
2019-05-30T04:25:54.653Z,9.1
2019-05-30T04:28:31.957Z,9.1
2019-05-30T04:31:04.524Z,8.7
2019-05-30T04:33:37.017Z,8.6
2019-05-30T04:36:12.372Z,8.1
2019-05-30T04:38:47.423Z,8
2019-05-30T04:41:21.234Z,8.7
2019-05-30T04:43:53.682Z,7.5
2019-05-30T04:46:26.565Z,8.7
2019-05-30T04:48:58.956Z,7.3
2019-05-30T04:51:31.537Z,7.5
2019-05-30T04:54:03.942Z,7.3
2019-05-30T04:56:36.671Z,6.7
2019-05-30T04:59:11.070Z,6.2
2019-05-30T05:01:49.701Z,6.2
2019-05-30T05:04:22.311Z,6.2
2019-05-30T05:06:55.055Z,6.5
2019-05-30T05:09:27.521Z,6.8
2019-05-30T05:12:00.466Z,7.3
2019-05-30T05:14:32.937Z,7.3
2019-05-30T05:17:05.873Z,6.8
2019-05-30T05:19:38.284Z,7.7
2019-05-30T05:22:11.031Z,7.9
2019-05-30T05:24:44.619Z,8.8
2019-05-30T05:27:17.886Z,7.7
2019-05-30T05:29:51.359Z,7.8
2019-05-30T05:31:25.073Z,7.6
2019-05-30T05:33:58.900Z,7.2
2019-05-30T05:36:32.626Z,8.3
2019-05-30T05:39:06.910Z,7.2
2019-05-30T05:41:39.324Z,7.7
2019-05-30T05:44:11.870Z,8.1
2019-05-30T05:46:44.153Z,9.1
2019-05-30T05:49:16.620Z,9.1
2019-05-30T05:51:50.755Z,10.9
2019-05-30T05:54:23.471Z,12.4
2019-05-30T05:56:57.098Z,11.4
2019-05-30T05:59:29.539Z,11.1
2019-05-30T06:02:01.934Z,10.6
2019-05-30T06:04:34.512Z,9.7
2019-05-30T06:07:06.805Z,9.5
2019-05-30T06:09:39.254Z,9.1
2019-05-30T06:12:11.509Z,9.3
2019-05-30T06:14:43.888Z,9.5
2019-05-30T06:17:17.250Z,9.1
2019-05-30T06:19:51.017Z,8.3
2019-05-30T06:22:23.788Z,8.1
2019-05-30T06:24:56.273Z,9.7
2019-05-30T06:27:28.549Z,9.1
2019-05-30T06:30:01.374Z,9
2019-05-30T06:32:34.027Z,8.2
2019-05-30T06:35:06.487Z,8
2019-05-30T06:37:38.866Z,8.2
2019-05-30T06:40:11.462Z,9.1
2019-05-30T06:42:43.753Z,9.4
2019-05-30T06:45:16.116Z,8.6
2019-05-30T06:47:48.490Z,8.1
2019-05-30T06:50:20.975Z,9.9
2019-05-30T06:52:54.567Z,10.6
2019-05-30T06:55:27.535Z,10.1
2019-05-30T06:58:01.321Z,8.8
2019-05-30T07:00:34.217Z,8.7
2019-05-30T07:03:06.729Z,9
2019-05-30T07:05:40.532Z,8.4
2019-05-30T07:08:14.689Z,8.2
2019-05-30T07:10:47.663Z,7.8
2019-05-30T07:13:20.028Z,6.9
2019-05-30T07:15:52.792Z,7.6
2019-05-30T07:18:25.610Z,7.3
2019-05-30T07:20:59.713Z,7.2
2019-05-30T07:23:32.244Z,7.7
2019-05-30T07:26:05.882Z,7.1
2019-05-30T07:28:38.543Z,5.7
2019-05-30T07:31:28.233Z,5.9
2019-05-30T07:34:03.783Z,6.6
2019-05-30T07:36:37.658Z,6.3
2019-05-30T07:39:11.635Z,5.9
2019-05-30T07:41:45.680Z,6.7
2019-05-30T07:44:28.976Z,6.4
2019-05-30T07:47:02.817Z,7.1
2019-05-30T07:49:37.092Z,6.7
2019-05-30T07:52:12.429Z,5.6
2019-05-30T07:54:46.262Z,7.4
2019-05-30T07:57:20.218Z,8.6
2019-05-30T07:59:54.148Z,10.7
2019-05-30T08:02:29.728Z,9
2019-05-30T08:05:04.993Z,11.2
2019-05-30T08:07:47.445Z,12.3
2019-05-30T08:10:22.092Z,16.9
2019-05-30T08:12:55.926Z,12.8
2019-05-30T08:15:29.790Z,11.3
2019-05-30T08:18:05.553Z,11.1
2019-05-30T08:20:39.403Z,10.2
2019-05-30T08:23:13.164Z,10.3
2019-05-30T08:25:46.985Z,10.1
2019-05-30T08:28:21.014Z,10.2
2019-05-30T08:30:57.185Z,9.2
2019-05-30T08:33:33.793Z,9.6
2019-05-30T08:36:08.976Z,10
2019-05-30T08:38:42.807Z,10.4
2019-05-30T08:41:16.603Z,9.1
2019-05-30T08:43:50.620Z,9.5
2019-05-30T08:46:24.635Z,10.4
2019-05-30T08:49:02.040Z,9.8
2019-05-30T08:51:36.479Z,9.7
2019-05-30T08:54:14.196Z,11.2
2019-05-30T08:56:48.241Z,10.1
2019-05-30T08:59:22.423Z,11.7
2019-05-30T09:01:54.995Z,9.8
2019-05-30T09:04:27.541Z,9.2
2019-05-30T09:06:59.891Z,8.6
2019-05-30T09:09:32.226Z,8.5
2019-05-30T09:12:04.998Z,9.5
2019-05-30T09:14:40.724Z,8.9
2019-05-30T09:17:15.102Z,9
2019-05-30T09:19:49.073Z,8.4
2019-05-30T09:22:21.285Z,8
2019-05-30T09:24:53.741Z,8.1
2019-05-30T09:27:26.152Z,8
2019-05-30T09:29:58.802Z,7.4
2019-05-30T09:31:25.584Z,8
2019-05-30T09:33:59.420Z,7.1
2019-05-30T09:36:33.708Z,7.1
2019-05-30T09:39:07.441Z,7
2019-05-30T09:41:43.520Z,7
2019-05-30T09:44:19.326Z,7.4
2019-05-30T09:46:53.487Z,6.7
2019-05-30T09:49:27.305Z,7.2
2019-05-30T09:52:01.758Z,6.9
2019-05-30T09:54:35.645Z,6.4
2019-05-30T09:57:09.605Z,6.3
2019-05-30T09:59:46.612Z,6.7
2019-05-30T10:02:24.286Z,6.1
2019-05-30T10:04:56.860Z,6.2
2019-05-30T10:07:30.100Z,6.2
2019-05-30T10:10:02.724Z,5.2
2019-05-30T10:12:35.207Z,5.7
2019-05-30T10:15:07.685Z,6
2019-05-30T10:17:40.402Z,5.7
2019-05-30T10:20:12.913Z,5.6
2019-05-30T10:22:48.955Z,5.7
2019-05-30T10:25:25.875Z,5.2
2019-05-30T10:27:58.390Z,5.9
2019-05-30T10:30:30.831Z,6.5
2019-05-30T10:33:03.378Z,5.8
2019-05-30T10:35:35.866Z,5.7
2019-05-30T10:38:08.751Z,6.1
2019-05-30T10:40:41.103Z,6.3
2019-05-30T10:43:13.606Z,7.1
2019-05-30T10:45:49.136Z,7.4
2019-05-30T10:48:23.626Z,6.4
2019-05-30T10:50:56.672Z,7.1
2019-05-30T10:53:31.445Z,7.6
2019-05-30T10:56:04.116Z,7.5
2019-05-30T10:58:37.245Z,6.7
2019-05-30T11:01:10.160Z,6.8
2019-05-30T11:03:42.975Z,5.8
2019-05-30T11:06:15.619Z,5.6
2019-05-30T11:08:50.278Z,6.4
2019-05-30T11:11:23.476Z,6.4
2019-05-30T11:13:57.558Z,5.5
2019-05-30T11:16:31.302Z,5.5
2019-05-30T11:19:08.432Z,6.2
2019-05-30T11:21:42.313Z,6.7
2019-05-30T11:24:18.368Z,6.2
2019-05-30T11:26:56.912Z,6.1
2019-05-30T11:29:35.813Z,6
2019-05-30T11:31:30.183Z,5.4
2019-05-30T11:34:05.739Z,4.7
2019-05-30T11:36:40.474Z,4.6
2019-05-30T11:39:15.060Z,3.8
2019-05-30T11:41:49.677Z,4.5
2019-05-30T11:44:25.128Z,3.6
2019-05-30T11:47:00.170Z,4.7
2019-05-30T11:49:41.979Z,4.3
2019-05-30T11:52:22.144Z,4
2019-05-30T11:55:01.061Z,4
2019-05-30T11:57:41.193Z,4.4
2019-05-30T12:00:19.327Z,3.8
2019-05-30T12:02:58.908Z,2.7
2019-05-30T12:05:40.473Z,3.2
2019-05-30T12:08:18.271Z,3.5
2019-05-30T12:10:55.372Z,3
2019-05-30T12:13:32.694Z,3.1
2019-05-30T12:16:06.270Z,3
2019-05-30T12:18:40.567Z,3
2019-05-30T12:21:14.617Z,2.6
2019-05-30T12:23:48.562Z,2.8
2019-05-30T12:26:21.569Z,2.6
2019-05-30T12:28:54.384Z,4.3
2019-05-30T12:31:28.107Z,2.6
2019-05-30T12:34:00.810Z,2.3
2019-05-30T12:36:35.114Z,2.7
2019-05-30T12:39:07.915Z,2.4
2019-05-30T12:41:40.390Z,2.5
2019-05-30T12:44:13.138Z,2.5
2019-05-30T12:46:45.508Z,2.1
2019-05-30T12:49:18.100Z,2.3
2019-05-30T12:51:50.732Z,2
2019-05-30T12:54:23.411Z,2.6
2019-05-30T12:56:56.799Z,2.2
2019-05-30T12:59:31.231Z,2
2019-05-30T13:02:03.713Z,2.4
2019-05-30T13:04:36.227Z,2
2019-05-30T13:07:08.647Z,2.1
2019-05-30T13:09:41.452Z,2.3
2019-05-30T13:12:13.844Z,2.5
2019-05-30T13:14:46.475Z,2.6
2019-05-30T13:17:18.868Z,3.1
2019-05-30T13:19:51.640Z,3.2
2019-05-30T13:22:24.119Z,3.1
2019-05-30T13:24:57.730Z,3.1
2019-05-30T13:27:31.859Z,2.7
2019-05-30T13:31:25.794Z,2.6
2019-05-30T13:34:01.300Z,2.8
2019-05-30T13:36:36.756Z,2
2019-05-30T13:39:10.787Z,2.4
2019-05-30T13:41:45.272Z,2.3
2019-05-30T13:44:19.309Z,2.1
2019-05-30T13:46:55.361Z,2.1
2019-05-30T13:49:30.431Z,2.1
2019-05-30T13:52:05.030Z,2
2019-05-30T13:54:39.257Z,2.2
2019-05-30T13:57:11.939Z,2.6
2019-05-30T13:59:44.593Z,3.1
2019-05-30T14:02:17.750Z,2.8
2019-05-30T14:04:50.514Z,2.8
2019-05-30T14:07:23.419Z,4.5
2019-05-30T14:09:56.516Z,4.3
2019-05-30T14:12:29.349Z,3.4
2019-05-30T14:15:09.974Z,3.1
2019-05-30T14:17:43.618Z,3.4
2019-05-30T14:20:16.248Z,2.7
2019-05-30T14:22:49.199Z,2.9
2019-05-30T14:25:21.710Z,3.5
2019-05-30T14:27:54.539Z,3.7
2019-05-30T14:30:27.149Z,3.9
2019-05-30T14:33:00.246Z,4.9
2019-05-30T14:35:34.369Z,5.3
2019-05-30T14:38:07.075Z,5
2019-05-30T14:40:41.121Z,4.4
2019-05-30T14:43:14.500Z,4.8
2019-05-30T14:45:47.002Z,4.9
2019-05-30T14:48:19.977Z,5.1
2019-05-30T14:50:52.542Z,4.7
2019-05-30T14:53:25.017Z,5.3
2019-05-30T14:55:57.328Z,5.1
2019-05-30T14:58:29.843Z,5.4
2019-05-30T15:01:02.419Z,4.7
2019-05-30T15:03:35.393Z,4.2
2019-05-30T15:06:12.808Z,4.1
2019-05-30T15:08:48.789Z,4
2019-05-30T15:11:21.290Z,4.4
2019-05-30T15:13:53.808Z,3.9
2019-05-30T15:16:26.238Z,3.5
2019-05-30T15:18:58.810Z,3.2
2019-05-30T15:21:31.228Z,3.5
2019-05-30T15:24:03.700Z,3.3
2019-05-30T15:26:36.077Z,3.2
2019-05-30T15:29:08.740Z,2.6
2019-05-30T15:31:26.283Z,2.6
2019-05-30T15:34:00.506Z,2.8
2019-05-30T15:36:34.775Z,2.7
2019-05-30T15:39:07.243Z,2.6
2019-05-30T15:41:41.046Z,2.4
2019-05-30T15:44:13.825Z,2.8
2019-05-30T15:46:46.722Z,3.1
2019-05-30T15:49:19.748Z,3
2019-05-30T15:51:52.361Z,3
2019-05-30T15:54:24.866Z,2.3
2019-05-30T15:56:57.427Z,2.5
2019-05-30T15:59:30.106Z,2.2
2019-05-30T16:02:02.835Z,2.3
2019-05-30T16:04:35.483Z,2.6
2019-05-30T16:07:08.110Z,2.2
2019-05-30T16:09:47.634Z,2.7
2019-05-30T16:12:21.514Z,2.7
2019-05-30T16:14:54.219Z,2.6
2019-05-30T16:17:26.783Z,3.2
2019-05-30T16:19:59.450Z,3.1
2019-05-30T16:22:32.018Z,3.2
2019-05-30T16:25:04.541Z,3.1
2019-05-30T16:27:37.640Z,3.3
2019-05-30T16:30:10.736Z,3.4
2019-05-30T16:32:51.099Z,3.1
2019-05-30T16:35:23.838Z,3.3
2019-05-30T16:37:56.472Z,2.9
2019-05-30T16:40:29.010Z,2.4
2019-05-30T16:43:01.767Z,2.6
2019-05-30T16:45:34.409Z,2.2
2019-05-30T16:48:07.467Z,2
2019-05-30T16:50:40.061Z,2.1
2019-05-30T16:53:12.813Z,2.1
2019-05-30T16:55:46.191Z,1.9
2019-05-30T16:58:21.875Z,2.2
2019-05-30T17:00:55.686Z,2.1
2019-05-30T17:03:28.460Z,2.3
2019-05-30T17:06:01.673Z,1.8
2019-05-30T17:08:36.181Z,1.7
2019-05-30T17:11:08.645Z,2.1
2019-05-30T17:13:41.416Z,1.9
2019-05-30T17:16:13.846Z,2.9
2019-05-30T17:18:46.446Z,2.4
2019-05-30T17:21:21.241Z,2.2
2019-05-30T17:23:55.771Z,2
2019-05-30T17:26:28.401Z,2.1
2019-05-30T17:29:01.131Z,2.2
2019-05-30T17:31:26.375Z,2.4
2019-05-30T17:34:02.439Z,2.9
2019-05-30T17:36:35.360Z,2.5
2019-05-30T17:39:08.067Z,2.4
2019-05-30T17:41:40.508Z,2
2019-05-30T17:44:13.140Z,1.9
2019-05-30T17:46:45.325Z,1.6
2019-05-30T17:49:17.855Z,1.5
2019-05-30T17:51:53.218Z,1.9
2019-05-30T17:54:26.271Z,1.2
2019-05-30T17:57:01.255Z,0.8
2019-05-30T17:59:34.631Z,1
2019-05-30T18:02:06.910Z,1
2019-05-30T18:04:39.408Z,0.7
2019-05-30T18:07:12.159Z,1.1
2019-05-30T18:09:44.615Z,1
2019-05-30T18:12:16.914Z,0.7
2019-05-30T18:14:49.559Z,0.9
2019-05-30T18:17:23.679Z,0.9
2019-05-30T18:19:58.216Z,0.9
2019-05-30T18:22:32.599Z,0.9
2019-05-30T18:25:05.207Z,0.7
2019-05-30T18:27:37.527Z,0.8
2019-05-30T18:30:10.223Z,0.9
2019-05-30T18:32:42.687Z,1.1
2019-05-30T18:35:15.091Z,1.1
2019-05-30T18:37:47.678Z,1.1
2019-05-30T18:40:20.393Z,1
2019-05-30T18:42:52.726Z,1.1
2019-05-30T18:45:25.197Z,1.1
2019-05-30T18:47:58.964Z,1.1
2019-05-30T18:50:33.711Z,1
2019-05-30T18:53:07.358Z,0.9
2019-05-30T18:55:39.331Z,1
2019-05-30T18:58:11.425Z,1
2019-05-30T19:00:44.250Z,0.8
2019-05-30T19:03:16.304Z,0.8
2019-05-30T19:05:48.829Z,1
2019-05-30T19:08:20.960Z,0.8
2019-05-30T19:10:53.278Z,0.8
2019-05-30T19:13:25.082Z,0.8
2019-05-30T19:15:57.052Z,0.9
2019-05-30T19:18:29.663Z,0.7
2019-05-30T19:21:01.440Z,0.7
2019-05-30T19:23:37.831Z,0.6
2019-05-30T19:26:11.871Z,0.7
2019-05-30T19:28:43.754Z,0.6
2019-05-30T19:31:26.691Z,0.7
2019-05-30T19:34:01.992Z,1
2019-05-30T19:36:37.205Z,0.7
2019-05-30T19:39:09.730Z,0.8
2019-05-30T19:41:57.461Z,0.8
2019-05-30T19:44:22.983Z,0.7
2019-05-30T19:46:55.634Z,1.2
2019-05-30T19:49:28.489Z,0.9
2019-05-30T19:52:02.741Z,0.8
2019-05-30T19:54:35.719Z,1
2019-05-30T19:57:09.517Z,0.8
2019-05-30T19:59:41.883Z,0.9
2019-05-30T20:02:14.486Z,0.9
2019-05-30T20:04:46.889Z,0.9
2019-05-30T20:07:19.263Z,1
2019-05-30T20:10:01.996Z,1.1
2019-05-30T20:12:32.987Z,0.8
2019-05-30T20:15:06.779Z,0.9
2019-05-30T20:17:40.046Z,0.9
2019-05-30T20:20:13.989Z,0.9
2019-05-30T20:22:46.515Z,0.7
2019-05-30T20:25:19.694Z,1
2019-05-30T20:27:52.145Z,1.1
2019-05-30T20:30:24.806Z,0.9
2019-05-30T20:32:57.329Z,0.9
2019-05-30T20:35:29.790Z,1.1
2019-05-30T20:38:05.462Z,1.1
2019-05-30T20:40:37.234Z,1
2019-05-30T20:43:10.903Z,0.7
2019-05-30T20:45:48.685Z,0.9
2019-05-30T20:48:21.932Z,0.7
2019-05-30T20:50:53.714Z,0.8
2019-05-30T20:53:25.739Z,0.8
2019-05-30T20:55:58.514Z,0.7
2019-05-30T20:58:30.705Z,0.8
2019-05-30T21:01:02.503Z,0.6
2019-05-30T21:03:35.804Z,0.8
2019-05-30T21:06:08.696Z,0.7
2019-05-30T21:08:41.484Z,0.6
2019-05-30T21:11:15.135Z,0.7
2019-05-30T21:13:47.267Z,0.7
2019-05-30T21:16:19.320Z,0.7
2019-05-30T21:18:51.373Z,0.7
2019-05-30T21:21:23.434Z,0.4
2019-05-30T21:23:55.455Z,0.7
2019-05-30T21:26:27.864Z,0.6
2019-05-30T21:28:59.721Z,0.5
2019-05-30T21:31:25.708Z,0.5
2019-05-30T21:33:59.848Z,0.5
2019-05-30T21:36:34.196Z,0.6
2019-05-30T21:39:08.059Z,0.6
2019-05-30T21:41:42.697Z,0.7
2019-05-30T21:44:18.051Z,0.4
2019-05-30T21:46:51.947Z,0.6
2019-05-30T21:49:25.986Z,0.5
2019-05-30T21:52:00.100Z,0.5
2019-05-30T21:54:34.879Z,0.6
2019-05-30T21:57:09.537Z,0.6
2019-05-30T21:59:44.516Z,0.6
2019-05-30T22:02:20.085Z,0.5
2019-05-30T22:04:53.922Z,0.5
2019-05-30T22:07:27.938Z,0.6
2019-05-30T22:10:02.634Z,0.5
2019-05-30T22:12:36.501Z,0.5
2019-05-30T22:15:10.546Z,0.5
2019-05-30T22:17:45.426Z,0.6
2019-05-30T22:20:19.452Z,0.6
2019-05-30T22:22:53.649Z,0.4
2019-05-30T22:25:26.138Z,0.5
2019-05-30T22:27:58.907Z,0.3
2019-05-30T22:30:31.198Z,0.4
2019-05-30T22:33:03.666Z,0.5
2019-05-30T22:35:36.140Z,0.5
2019-05-30T22:38:08.521Z,0.6
2019-05-30T22:40:40.829Z,0.6
2019-05-30T22:43:25.719Z,0.5
2019-05-30T22:45:54.215Z,0.7
2019-05-30T22:48:26.664Z,0.6
2019-05-30T22:50:59.136Z,0.5
2019-05-30T22:53:31.823Z,0.5
2019-05-30T22:56:04.106Z,0.3
2019-05-30T22:58:37.321Z,0.8
2019-05-30T23:01:09.706Z,0.5
2019-05-30T23:03:42.346Z,0.5
2019-05-30T23:06:14.650Z,0.8
2019-05-30T23:08:48.675Z,0.4
2019-05-30T23:11:22.717Z,0.6
2019-05-30T23:13:56.462Z,0.6
2019-05-30T23:16:28.938Z,0.5
2019-05-30T23:19:02.220Z,0.6
2019-05-30T23:21:34.760Z,0.4
2019-05-30T23:24:07.753Z,0.4
2019-05-30T23:26:40.531Z,0.8
2019-05-30T23:29:13.882Z,0.7
2019-05-30T23:31:25.972Z,0.7
2019-05-30T23:33:59.830Z,0.8
2019-05-30T23:36:33.610Z,0.6
2019-05-30T23:39:07.475Z,0.7
2019-05-30T23:41:41.904Z,0.7
2019-05-30T23:44:16.120Z,0.5
2019-05-30T23:46:49.514Z,0.7
2019-05-30T23:49:23.167Z,0.5
2019-05-30T23:51:56.427Z,0.6
2019-05-30T23:54:30.232Z,0.5
2019-05-30T23:57:02.933Z,0.7
2019-05-30T23:59:35.736Z,0.8
